createdAt,value
2018-06-20T00:02:12.143Z,41.80
2018-06-20T00:04:40.577Z,41.80
2018-06-20T00:07:09.056Z,41.80
2018-06-20T00:09:37.462Z,41.80
2018-06-20T00:12:05.865Z,41.80
2018-06-20T00:14:34.285Z,41.80
2018-06-20T00:17:02.642Z,41.80
2018-06-20T00:19:31.235Z,41.80
2018-06-20T00:21:59.705Z,41.80
2018-06-20T00:24:28.149Z,41.80
2018-06-20T00:26:56.779Z,42.20
2018-06-20T00:29:25.323Z,41.80
2018-06-20T00:31:54.095Z,41.80
2018-06-20T00:34:22.604Z,41.80
2018-06-20T00:36:50.941Z,41.80
2018-06-20T00:39:19.404Z,41.80
2018-06-20T00:41:47.816Z,41.80
2018-06-20T00:45:19.205Z,41.80
2018-06-20T00:47:47.624Z,41.80
2018-06-20T00:50:16.539Z,41.80
2018-06-20T00:52:45.864Z,41.80
2018-06-20T00:55:14.301Z,41.80
2018-06-20T00:57:42.682Z,41.80
2018-06-20T01:00:11.346Z,41.90
2018-06-20T01:02:39.808Z,41.80
2018-06-20T01:07:36.355Z,41.90
2018-06-20T01:10:04.870Z,41.80
2018-06-20T01:12:33.508Z,41.80
2018-06-20T01:17:30.258Z,41.90
2018-06-20T01:19:58.656Z,41.80
2018-06-20T01:22:27.076Z,41.80
2018-06-20T01:24:55.465Z,41.80
2018-06-20T01:27:23.860Z,41.80
2018-06-20T01:29:52.388Z,41.70
2018-06-20T01:32:20.796Z,41.70
2018-06-20T01:34:49.216Z,41.70
2018-06-20T01:37:17.784Z,41.70
2018-06-20T01:39:46.345Z,41.70
2018-06-20T01:42:14.853Z,41.70
2018-06-20T01:44:43.178Z,41.70
2018-06-20T01:47:11.793Z,42.00
2018-06-20T01:49:40.318Z,41.70
2018-06-20T01:52:08.749Z,41.70
2018-06-20T01:54:37.196Z,41.70
2018-06-20T01:57:05.602Z,41.70
2018-06-20T01:59:33.968Z,41.70
2018-06-20T02:02:02.475Z,41.70
2018-06-20T02:04:30.989Z,41.70
2018-06-20T02:06:59.446Z,41.50
2018-06-20T02:09:28.077Z,41.50
2018-06-20T02:11:56.539Z,41.70
2018-06-20T02:14:24.925Z,41.70
2018-06-20T02:16:53.409Z,41.70
2018-06-20T02:19:21.892Z,41.70
2018-06-20T02:21:50.312Z,41.50
2018-06-20T02:24:19.029Z,41.50
2018-06-20T02:26:47.505Z,41.40
2018-06-20T02:29:15.921Z,41.40
2018-06-20T02:31:44.355Z,41.40
2018-06-20T02:34:12.907Z,41.40
2018-06-20T02:36:41.343Z,41.40
2018-06-20T02:39:09.713Z,41.40
2018-06-20T02:41:38.655Z,41.50
2018-06-20T02:44:07.076Z,41.50
2018-06-20T02:46:35.590Z,41.50
2018-06-20T02:51:32.113Z,41.40
2018-06-20T02:54:00.557Z,41.50
2018-06-20T02:56:28.937Z,41.50
2018-06-20T02:58:57.347Z,41.50
2018-06-20T03:01:25.838Z,41.50
2018-06-20T03:03:55.071Z,41.40
2018-06-20T03:06:23.458Z,41.60
2018-06-20T03:08:57.215Z,41.40
2018-06-20T03:11:26.146Z,41.40
2018-06-20T03:13:54.669Z,41.40
2018-06-20T03:16:23.123Z,41.40
2018-06-20T03:18:51.576Z,41.40
2018-06-20T03:21:20.023Z,41.40
2018-06-20T03:23:48.532Z,41.30
2018-06-20T03:26:17.065Z,41.90
2018-06-20T03:28:45.487Z,42.00
2018-06-20T03:31:13.995Z,42.20
2018-06-20T03:33:42.421Z,42.30
2018-06-20T03:36:10.867Z,42.30
2018-06-20T03:38:39.871Z,42.30
2018-06-20T03:41:08.311Z,42.50
2018-06-20T03:46:05.414Z,42.30
2018-06-20T03:48:33.831Z,42.30
2018-06-20T03:51:02.373Z,42.70
2018-06-20T03:53:30.884Z,42.70
2018-06-20T03:55:59.263Z,42.70
2018-06-20T03:58:27.867Z,42.70
2018-06-20T04:00:56.370Z,42.80
2018-06-20T04:03:24.788Z,42.80
2018-06-20T04:05:53.193Z,43.10
2018-06-20T04:08:21.631Z,43.10
2018-06-20T04:10:50.061Z,43.80
2018-06-20T04:13:18.531Z,43.30
2018-06-20T04:15:46.939Z,44.10
2018-06-20T04:20:43.865Z,43.20
2018-06-20T04:23:12.505Z,43.20
2018-06-20T04:25:40.991Z,43.10
2018-06-20T04:28:09.478Z,43.00
2018-06-20T04:30:38.615Z,42.90
2018-06-20T04:33:07.070Z,42.90
2018-06-20T04:35:35.491Z,42.80
2018-06-20T04:38:03.918Z,42.90
2018-06-20T04:40:32.363Z,42.80
2018-06-20T04:43:00.779Z,42.70
2018-06-20T04:45:29.157Z,42.70
2018-06-20T04:47:57.559Z,42.50
2018-06-20T04:50:26.021Z,42.20
2018-06-20T04:52:54.652Z,42.10
2018-06-20T04:55:23.106Z,42.20
2018-06-20T04:57:54.564Z,42.00
2018-06-20T05:00:22.898Z,42.10
2018-06-20T05:02:51.299Z,42.20
2018-06-20T05:05:19.905Z,42.20
2018-06-20T05:07:48.300Z,42.00
2018-06-20T05:10:16.975Z,42.20
2018-06-20T05:12:45.438Z,41.90
2018-06-20T05:15:13.847Z,41.50
2018-06-20T05:17:42.271Z,41.80
2018-06-20T05:20:10.789Z,41.60
2018-06-20T05:22:39.298Z,41.50
2018-06-20T05:25:07.991Z,41.60
2018-06-20T05:30:04.673Z,42.50
2018-06-20T05:32:33.091Z,42.50
2018-06-20T05:35:01.550Z,42.40
2018-06-20T05:37:30.016Z,42.40
2018-06-20T05:39:58.467Z,42.60
2018-06-20T05:42:26.877Z,43.30
2018-06-20T05:44:55.373Z,43.60
2018-06-20T05:47:23.866Z,43.30
2018-06-20T05:49:52.622Z,43.40
2018-06-20T05:52:21.171Z,43.30
2018-06-20T05:54:49.594Z,43.20
2018-06-20T05:57:18.007Z,43.50
2018-06-20T05:59:46.567Z,43.10
2018-06-20T06:02:15.227Z,42.90
2018-06-20T06:04:43.669Z,43.40
2018-06-20T06:07:12.204Z,43.40
2018-06-20T06:09:40.601Z,43.60
2018-06-20T06:12:09.032Z,43.30
2018-06-20T06:14:37.524Z,43.30
2018-06-20T06:19:34.404Z,43.10
2018-06-20T06:22:02.905Z,43.00
2018-06-20T06:24:31.339Z,42.90
2018-06-20T06:29:27.887Z,41.90
2018-06-20T06:31:56.328Z,42.50
2018-06-20T06:36:53.837Z,41.80
2018-06-20T06:39:22.282Z,42.50
2018-06-20T06:41:50.728Z,42.70
2018-06-20T06:44:19.186Z,41.90
2018-06-20T06:49:15.812Z,41.90
2018-06-20T06:51:44.212Z,41.90
2018-06-20T06:54:12.665Z,41.90
2018-06-20T06:56:41.127Z,41.90
2018-06-20T06:59:09.504Z,41.80
2018-06-20T07:01:37.882Z,43.10
2018-06-20T07:04:06.338Z,43.10
2018-06-20T07:06:34.768Z,43.10
2018-06-20T07:09:03.276Z,42.80
2018-06-20T07:11:31.702Z,42.70
2018-06-20T07:14:00.074Z,42.20
2018-06-20T07:16:31.404Z,42.40
2018-06-20T07:18:59.846Z,42.10
2018-06-20T07:21:28.360Z,43.20
2018-06-20T07:23:56.866Z,43.50
2018-06-20T07:26:25.354Z,43.50
2018-06-20T07:28:54.060Z,43.20
2018-06-20T07:31:22.517Z,42.50
2018-06-20T07:33:51.120Z,42.20
2018-06-20T07:36:19.849Z,42.20
2018-06-20T07:38:48.170Z,42.10
2018-06-20T07:41:16.985Z,42.10
2018-06-20T07:43:46.150Z,42.10
2018-06-20T07:46:14.616Z,42.20
2018-06-20T07:48:43.072Z,42.20
2018-06-20T07:53:39.718Z,42.20
2018-06-20T07:56:08.208Z,42.20
2018-06-20T07:58:41.877Z,42.20
2018-06-20T08:01:16.598Z,42.10
2018-06-20T08:03:50.228Z,42.20
2018-06-20T08:06:24.132Z,42.20
2018-06-20T08:08:57.929Z,42.20
2018-06-20T08:11:31.920Z,42.30
2018-06-20T08:14:05.818Z,41.50
2018-06-20T08:16:39.512Z,41.20
2018-06-20T08:19:13.397Z,40.90
2018-06-20T08:21:41.908Z,41.10
2018-06-20T08:24:10.325Z,40.80
2018-06-20T08:26:38.828Z,40.90
2018-06-20T08:29:07.318Z,41.20
2018-06-20T08:31:35.975Z,41.10
2018-06-20T08:36:32.738Z,40.80
2018-06-20T08:39:01.260Z,41.00
2018-06-20T08:41:29.720Z,41.20
2018-06-20T08:43:58.207Z,41.10
2018-06-20T08:46:27.018Z,40.20
2018-06-20T08:48:55.472Z,39.60
2018-06-20T08:51:24.144Z,38.60
2018-06-20T08:53:52.510Z,38.40
2018-06-20T08:56:21.056Z,38.50
2018-06-20T08:58:49.444Z,38.20
2018-06-20T09:01:17.912Z,38.10
2018-06-20T09:03:46.400Z,38.70
2018-06-20T09:06:20.142Z,39.10
2018-06-20T09:08:53.897Z,39.00
2018-06-20T09:11:27.645Z,38.60
2018-06-20T09:14:01.368Z,39.10
2018-06-20T09:16:35.017Z,39.10
2018-06-20T09:19:08.822Z,39.10
2018-06-20T09:21:37.308Z,39.30
2018-06-20T09:24:05.771Z,38.70
2018-06-20T09:26:34.237Z,39.10
2018-06-20T09:29:02.738Z,38.60
2018-06-20T09:31:31.285Z,39.40
2018-06-20T09:33:59.850Z,38.90
2018-06-20T09:36:28.462Z,38.80
2018-06-20T09:38:57.896Z,38.20
2018-06-20T09:41:26.316Z,38.00
2018-06-20T09:43:54.801Z,37.20
2018-06-20T09:51:19.682Z,37.40
2018-06-20T09:53:48.200Z,37.00
2018-06-20T09:56:16.718Z,37.90
2018-06-20T09:58:45.138Z,37.20
2018-06-20T10:01:18.932Z,37.40
2018-06-20T10:03:52.654Z,37.40
2018-06-20T10:06:26.524Z,37.40
2018-06-20T10:09:00.406Z,36.80
2018-06-20T10:11:34.134Z,36.80
2018-06-20T10:14:03.108Z,36.80
2018-06-20T10:16:31.925Z,36.80
2018-06-20T10:19:00.519Z,36.80
2018-06-20T10:21:29.084Z,36.90
2018-06-20T10:23:57.736Z,36.80
2018-06-20T10:28:54.424Z,36.90
2018-06-20T10:31:22.854Z,36.80
2018-06-20T10:38:48.662Z,36.30
2018-06-20T10:41:17.062Z,37.00
2018-06-20T10:43:45.526Z,36.60
2018-06-20T10:46:19.439Z,37.70
2018-06-20T10:48:47.925Z,37.00
2018-06-20T10:51:16.310Z,37.10
2018-06-20T10:56:17.278Z,37.10
2018-06-20T10:58:51.146Z,37.10
2018-06-20T11:01:24.768Z,37.10
2018-06-20T11:06:32.016Z,37.20
2018-06-20T11:09:06.170Z,37.10
2018-06-20T11:12:41.470Z,36.30
2018-06-20T11:15:10.058Z,37.10
2018-06-20T11:17:38.532Z,37.00
2018-06-20T11:20:22.127Z,37.10
2018-06-20T11:25:18.758Z,36.80
2018-06-20T11:27:47.341Z,36.50
2018-06-20T11:31:18.748Z,35.40
2018-06-20T11:33:47.196Z,36.40
2018-06-20T11:38:44.315Z,36.90
2018-06-20T11:41:12.862Z,36.20
2018-06-20T11:43:41.240Z,36.40
2018-06-20T11:46:14.908Z,36.20
2018-06-20T11:48:43.317Z,35.70
2018-06-20T11:51:11.867Z,35.40
2018-06-20T11:53:40.294Z,34.60
2018-06-20T11:56:08.740Z,34.70
2018-06-20T11:58:42.543Z,35.20
2018-06-20T12:01:16.607Z,35.30
2018-06-20T12:03:50.360Z,36.00
2018-06-20T12:06:24.190Z,37.00
2018-06-20T12:08:57.877Z,37.00
2018-06-20T12:11:31.782Z,36.30
2018-06-20T12:14:05.524Z,37.10
2018-06-20T12:16:36.251Z,37.20
2018-06-20T12:19:09.980Z,36.20
2018-06-20T12:21:43.801Z,37.30
2018-06-20T12:26:51.002Z,37.00
2018-06-20T12:29:25.157Z,36.00
2018-06-20T12:31:58.796Z,35.60
2018-06-20T12:34:32.664Z,35.20
2018-06-20T12:37:06.480Z,34.80
2018-06-20T12:39:34.173Z,34.40
2018-06-20T12:42:07.929Z,35.30
2018-06-20T12:44:41.818Z,36.50
2018-06-20T12:47:26.750Z,35.40
2018-06-20T12:50:00.282Z,34.80
2018-06-20T12:52:28.814Z,36.00
2018-06-20T12:54:57.178Z,35.60
2018-06-20T12:57:25.544Z,35.00
2018-06-20T12:59:54.006Z,35.10
2018-06-20T13:02:22.404Z,34.50
2018-06-20T13:04:51.312Z,35.10
2018-06-20T13:07:19.698Z,35.50
2018-06-20T13:09:48.300Z,36.00
2018-06-20T13:12:16.805Z,36.80
2018-06-20T13:19:41.433Z,37.20
2018-06-20T13:22:09.977Z,38.20
2018-06-20T13:24:38.403Z,37.90
2018-06-20T13:27:06.806Z,37.40
2018-06-20T13:29:35.295Z,35.80
2018-06-20T13:32:08.907Z,35.70
2018-06-20T13:34:42.565Z,34.10
2018-06-20T13:37:16.389Z,34.30
2018-06-20T13:39:50.221Z,33.40
2018-06-20T13:42:23.926Z,35.00
2018-06-20T13:44:52.439Z,36.30
2018-06-20T13:47:26.199Z,35.70
2018-06-20T13:49:57.761Z,35.90
2018-06-20T13:52:26.241Z,36.60
2018-06-20T13:54:54.610Z,35.40
2018-06-20T13:57:22.968Z,34.40
2018-06-20T13:59:51.505Z,34.10
2018-06-20T14:02:20.067Z,33.70
2018-06-20T14:04:48.469Z,33.60
2018-06-20T14:07:16.970Z,34.90
2018-06-20T14:09:45.340Z,35.70
2018-06-20T14:12:13.753Z,36.00
2018-06-20T14:14:42.191Z,36.70
2018-06-20T14:17:11.505Z,34.80
2018-06-20T14:19:45.303Z,34.20
2018-06-20T14:22:13.787Z,33.50
2018-06-20T14:24:42.129Z,33.90
2018-06-20T14:27:10.531Z,33.80
2018-06-20T14:29:41.848Z,33.40
2018-06-20T14:32:16.051Z,33.50
2018-06-20T14:34:50.155Z,32.90
2018-06-20T14:37:23.865Z,32.50
2018-06-20T14:39:57.859Z,32.60
2018-06-20T14:42:31.558Z,32.60
2018-06-20T14:45:05.376Z,33.40
2018-06-20T14:47:33.753Z,34.30
2018-06-20T14:50:02.346Z,32.90
2018-06-20T14:52:30.969Z,32.50
2018-06-20T14:54:59.458Z,32.10
2018-06-20T14:57:27.869Z,32.70
2018-06-20T14:59:56.345Z,34.00
2018-06-20T15:02:24.740Z,35.20
2018-06-20T15:04:53.269Z,35.40
2018-06-20T15:07:21.828Z,35.50
2018-06-20T15:09:50.213Z,35.90
2018-06-20T15:12:18.637Z,35.10
2018-06-20T15:14:47.085Z,35.30
2018-06-20T15:17:21.057Z,34.40
2018-06-20T15:22:17.541Z,32.60
2018-06-20T15:24:45.981Z,32.70
2018-06-20T15:27:19.646Z,32.90
2018-06-20T15:29:53.354Z,32.20
2018-06-20T15:32:27.084Z,32.30
2018-06-20T15:35:00.886Z,32.40
2018-06-20T15:37:34.719Z,33.20
2018-06-20T15:40:03.788Z,33.50
2018-06-20T15:42:32.204Z,33.00
2018-06-20T15:45:01.398Z,32.70
2018-06-20T15:47:29.887Z,31.50
2018-06-20T15:49:58.512Z,30.70
2018-06-20T15:52:27.029Z,30.80
2018-06-20T15:54:55.469Z,30.90
2018-06-20T15:57:23.865Z,30.80
2018-06-20T15:59:52.408Z,31.60
2018-06-20T16:02:20.812Z,31.10
2018-06-20T16:04:49.295Z,32.20
2018-06-20T16:07:17.747Z,32.10
2018-06-20T16:09:51.631Z,31.70
2018-06-20T16:12:20.208Z,31.90
2018-06-20T16:14:48.635Z,33.20
2018-06-20T16:17:18.281Z,33.20
2018-06-20T16:19:52.296Z,33.10
2018-06-20T16:22:26.071Z,33.00
2018-06-20T16:30:07.439Z,31.80
2018-06-20T16:32:35.841Z,31.40
2018-06-20T16:35:04.347Z,31.30
2018-06-20T16:40:00.857Z,31.90
2018-06-20T16:42:29.273Z,32.10
2018-06-20T16:44:57.708Z,33.00
2018-06-20T16:47:26.220Z,32.90
2018-06-20T16:49:54.614Z,31.60
2018-06-20T16:52:23.355Z,31.60
2018-06-20T16:54:51.765Z,31.10
2018-06-20T16:57:20.243Z,31.90
2018-06-20T17:02:22.182Z,31.10
2018-06-20T17:04:50.605Z,31.90
2018-06-20T17:07:19.425Z,31.30
2018-06-20T17:09:48.667Z,30.80
2018-06-20T17:12:22.387Z,30.50
2018-06-20T17:14:56.293Z,30.30
2018-06-20T17:17:30.077Z,31.50
2018-06-20T17:20:03.997Z,31.10
2018-06-20T17:22:37.933Z,30.80
2018-06-20T17:25:20.115Z,32.20
2018-06-20T17:27:48.708Z,31.70
2018-06-20T17:30:17.149Z,31.70
2018-06-20T17:32:45.635Z,32.70
2018-06-20T17:35:14.209Z,31.90
2018-06-20T17:37:42.546Z,31.90
2018-06-20T17:40:10.894Z,32.00
2018-06-20T17:45:07.452Z,32.40
2018-06-20T17:47:35.841Z,32.40
2018-06-20T17:50:04.270Z,32.40
2018-06-20T17:52:32.706Z,32.40
2018-06-20T17:55:01.095Z,32.40
2018-06-20T17:57:29.709Z,32.30
2018-06-20T17:59:58.147Z,32.30
2018-06-20T18:02:26.659Z,32.30
2018-06-20T18:05:00.546Z,32.20
2018-06-20T18:07:34.266Z,32.20
2018-06-20T18:10:08.063Z,32.90
2018-06-20T18:12:41.774Z,33.20
2018-06-20T18:15:15.525Z,34.40
2018-06-20T18:17:43.888Z,34.40
2018-06-20T18:20:12.240Z,34.10
2018-06-20T18:22:40.971Z,34.70
2018-06-20T18:25:09.359Z,34.70
2018-06-20T18:27:37.725Z,35.30
2018-06-20T18:30:06.270Z,36.00
2018-06-20T18:32:34.666Z,36.80
2018-06-20T18:35:03.166Z,37.80
2018-06-20T18:37:31.611Z,37.70
2018-06-20T18:40:03.240Z,37.70
2018-06-20T18:42:32.179Z,37.10
2018-06-20T18:45:00.626Z,37.70
2018-06-20T18:47:34.376Z,37.70
2018-06-20T18:50:02.922Z,37.70
2018-06-20T18:52:31.635Z,37.70
2018-06-20T18:55:00.056Z,37.70
2018-06-20T18:57:33.831Z,38.40
2018-06-20T19:00:07.707Z,37.90
2018-06-20T19:02:41.541Z,38.50
2018-06-20T19:05:15.292Z,38.40
2018-06-20T19:07:49.000Z,38.70
2018-06-20T19:10:17.353Z,39.20
2018-06-20T19:12:45.835Z,39.80
2018-06-20T19:15:14.303Z,39.50
2018-06-20T19:17:42.707Z,40.10
2018-06-20T19:20:11.273Z,39.70
2018-06-20T19:22:39.723Z,39.50
2018-06-20T19:25:08.149Z,39.40
2018-06-20T19:27:36.495Z,39.50
2018-06-20T19:30:05.065Z,39.50
2018-06-20T19:32:33.781Z,39.60
2018-06-20T19:35:02.804Z,39.90
2018-06-20T19:37:31.168Z,40.30
2018-06-20T19:39:59.593Z,39.70
2018-06-20T19:42:28.078Z,40.00
2018-06-20T19:44:56.450Z,39.80
2018-06-20T19:47:24.880Z,39.70
2018-06-20T19:49:53.338Z,39.80
2018-06-20T19:52:21.744Z,40.00
2018-06-20T19:57:18.285Z,39.10
2018-06-20T19:59:46.638Z,39.20
2018-06-20T20:02:14.967Z,39.20
2018-06-20T20:04:43.356Z,39.00
2018-06-20T20:07:11.735Z,39.30
2018-06-20T20:09:40.116Z,39.30
2018-06-20T20:12:08.520Z,39.20
2018-06-20T20:14:36.888Z,39.40
2018-06-20T20:17:05.493Z,39.20
2018-06-20T20:19:34.469Z,39.50
2018-06-20T20:22:02.806Z,39.50
2018-06-20T20:24:31.238Z,39.60
2018-06-20T20:27:02.471Z,39.50
2018-06-20T20:29:30.882Z,39.60
2018-06-20T20:34:27.535Z,40.00
2018-06-20T20:36:56.028Z,39.90
2018-06-20T20:39:24.565Z,39.90
2018-06-20T20:41:52.944Z,40.30
2018-06-20T20:44:21.446Z,40.10
2018-06-20T20:46:49.809Z,40.30
2018-06-20T20:49:18.248Z,40.30
2018-06-20T20:51:46.715Z,40.40
2018-06-20T20:54:15.174Z,40.30
2018-06-20T20:56:43.669Z,40.60
2018-06-20T20:59:12.047Z,40.30
2018-06-20T21:01:40.441Z,40.50
2018-06-20T21:04:08.808Z,40.70
2018-06-20T21:06:37.358Z,40.50
2018-06-20T21:09:07.842Z,41.10
2018-06-20T21:11:36.291Z,40.50
2018-06-20T21:14:04.695Z,40.40
2018-06-20T21:16:33.162Z,40.70
2018-06-20T21:19:01.581Z,40.50
2018-06-20T21:21:30.659Z,40.80
2018-06-20T21:23:59.140Z,41.10
2018-06-20T21:26:27.674Z,41.60
2018-06-20T21:28:56.104Z,41.50
2018-06-20T21:31:24.570Z,41.50
2018-06-20T21:33:53.003Z,41.60
2018-06-20T21:36:21.404Z,41.30
2018-06-20T21:38:49.818Z,41.40
2018-06-20T21:41:18.224Z,41.60
2018-06-20T21:46:14.954Z,41.20
2018-06-20T21:48:43.353Z,41.10
2018-06-20T21:51:11.676Z,41.30
2018-06-20T21:53:40.038Z,41.10
2018-06-20T21:56:08.578Z,41.40
2018-06-20T21:58:36.973Z,41.40
2018-06-20T22:03:33.559Z,41.20
2018-06-20T22:06:02.033Z,41.10
2018-06-20T22:08:30.433Z,41.10
2018-06-20T22:10:58.969Z,41.10
2018-06-20T22:13:27.312Z,41.00
2018-06-20T22:15:55.671Z,40.90
2018-06-20T22:18:24.176Z,41.10
2018-06-20T22:20:52.606Z,41.00
2018-06-20T22:23:21.124Z,41.80
2018-06-20T22:25:49.584Z,41.70
2018-06-20T22:28:17.946Z,41.70
2018-06-20T22:30:46.338Z,41.70
2018-06-20T22:33:14.906Z,42.00
2018-06-20T22:35:43.398Z,42.50
2018-06-20T22:38:11.734Z,41.80
2018-06-20T22:40:40.154Z,42.20
2018-06-20T22:43:08.754Z,42.30
2018-06-20T22:45:37.252Z,42.20
2018-06-20T22:48:05.692Z,42.00
2018-06-20T22:50:34.167Z,42.50
2018-06-20T22:53:02.793Z,42.50
2018-06-20T22:57:59.337Z,42.20
2018-06-20T23:00:27.815Z,42.70
2018-06-20T23:02:56.192Z,42.30
2018-06-20T23:05:24.527Z,42.50
2018-06-20T23:07:52.909Z,42.10
2018-06-20T23:10:21.294Z,42.30
2018-06-20T23:12:49.901Z,42.40
2018-06-20T23:15:18.285Z,43.00
2018-06-20T23:17:46.662Z,42.70
2018-06-20T23:20:15.070Z,42.40
2018-06-20T23:25:11.635Z,42.70
2018-06-20T23:27:40.015Z,42.90
2018-06-20T23:30:08.596Z,42.90
2018-06-20T23:32:37.016Z,42.90
2018-06-20T23:35:05.405Z,42.90
2018-06-20T23:37:33.832Z,42.90
2018-06-20T23:40:02.306Z,42.90
2018-06-20T23:42:30.894Z,42.80
2018-06-20T23:44:59.488Z,42.70
2018-06-20T23:47:27.816Z,42.80
2018-06-20T23:49:56.190Z,42.50
2018-06-20T23:52:24.602Z,42.90
2018-06-20T23:57:21.152Z,42.90
2018-06-20T23:59:49.576Z,43.10
